sensor_id;sensor_type;location;lat;lon;timestamp;P1;durP1;ratioP1;P2;durP2;ratioP2
76115;SDS011;64847;45.778;12.802;2023-03-05T00:01:04;21.50;;;18.70;;
76115;SDS011;64847;45.778;12.802;2023-03-05T00:03:34;31.23;;;19.50;;
76115;SDS011;64847;45.778;12.802;2023-03-05T00:05:59;22.33;;;18.90;;
76115;SDS011;64847;45.778;12.802;2023-03-05T00:08:25;24.97;;;19.60;;
76115;SDS011;64847;45.778;12.802;2023-03-05T00:10:58;22.57;;;19.47;;
76115;SDS011;64847;45.778;12.802;2023-03-05T00:13:24;23.30;;;18.50;;
76115;SDS011;64847;45.778;12.802;2023-03-05T00:15:50;20.40;;;18.07;;
76115;SDS011;64847;45.778;12.802;2023-03-05T00:18:16;23.47;;;18.33;;
76115;SDS011;64847;45.778;12.802;2023-03-05T00:20:41;22.10;;;18.23;;
76115;SDS011;64847;45.778;12.802;2023-03-05T00:23:07;23.40;;;18.57;;
76115;SDS011;64847;45.778;12.802;2023-03-05T00:25:35;24.43;;;18.17;;
76115;SDS011;64847;45.778;12.802;2023-03-05T00:28:01;25.33;;;19.33;;
76115;SDS011;64847;45.778;12.802;2023-03-05T00:30:26;24.97;;;20.60;;
76115;SDS011;64847;45.778;12.802;2023-03-05T00:32:52;22.60;;;18.57;;
76115;SDS011;64847;45.778;12.802;2023-03-05T00:35:17;21.87;;;18.27;;
76115;SDS011;64847;45.778;12.802;2023-03-05T00:37:43;25.00;;;20.47;;
76115;SDS011;64847;45.778;12.802;2023-03-05T00:40:08;23.53;;;19.53;;
76115;SDS011;64847;45.778;12.802;2023-03-05T00:42:34;26.57;;;21.47;;
76115;SDS011;64847;45.778;12.802;2023-03-05T00:45:03;25.00;;;19.83;;
76115;SDS011;64847;45.778;12.802;2023-03-05T00:47:29;24.13;;;19.57;;
76115;SDS011;64847;45.778;12.802;2023-03-05T00:49:55;24.17;;;19.83;;
76115;SDS011;64847;45.778;12.802;2023-03-05T00:52:20;21.27;;;18.13;;
76115;SDS011;64847;45.778;12.802;2023-03-05T00:54:45;23.50;;;19.60;;
76115;SDS011;64847;45.778;12.802;2023-03-05T00:57:11;25.07;;;20.23;;
76115;SDS011;64847;45.778;12.802;2023-03-05T00:59:36;24.00;;;20.43;;
76115;SDS011;64847;45.778;12.802;2023-03-05T01:02:01;22.20;;;18.27;;
76115;SDS011;64847;45.778;12.802;2023-03-05T01:04:27;22.10;;;19.03;;
76115;SDS011;64847;45.778;12.802;2023-03-05T01:06:52;25.40;;;20.23;;
76115;SDS011;64847;45.778;12.802;2023-03-05T01:09:20;21.87;;;18.17;;
76115;SDS011;64847;45.778;12.802;2023-03-05T01:11:46;24.27;;;19.73;;
76115;SDS011;64847;45.778;12.802;2023-03-05T01:14:11;24.93;;;20.67;;
76115;SDS011;64847;45.778;12.802;2023-03-05T01:16:37;25.50;;;19.80;;
76115;SDS011;64847;45.778;12.802;2023-03-05T01:19:02;21.70;;;18.77;;
76115;SDS011;64847;45.778;12.802;2023-03-05T01:21:28;21.90;;;19.37;;
76115;SDS011;64847;45.778;12.802;2023-03-05T01:23:53;23.70;;;19.23;;
76115;SDS011;64847;45.778;12.802;2023-03-05T01:26:19;23.43;;;19.17;;
76115;SDS011;64847;45.778;12.802;2023-03-05T01:28:45;25.23;;;19.83;;
76115;SDS011;64847;45.778;12.802;2023-03-05T01:31:11;22.70;;;18.83;;
76115;SDS011;64847;45.778;12.802;2023-03-05T01:33:37;24.10;;;18.33;;
76115;SDS011;64847;45.778;12.802;2023-03-05T01:36:05;22.33;;;18.87;;
76115;SDS011;64847;45.778;12.802;2023-03-05T01:38:38;22.70;;;16.37;;
76115;SDS011;64847;45.778;12.802;2023-03-05T01:41:04;20.90;;;17.43;;
76115;SDS011;64847;45.778;12.802;2023-03-05T01:43:30;23.17;;;18.40;;
76115;SDS011;64847;45.778;12.802;2023-03-05T01:49:08;20.23;;;17.17;;
76115;SDS011;64847;45.778;12.802;2023-03-05T01:57:13;22.43;;;17.10;;
76115;SDS011;64847;45.778;12.802;2023-03-05T01:59:40;20.97;;;16.87;;
76115;SDS011;64847;45.778;12.802;2023-03-05T02:02:07;20.93;;;16.30;;
76115;SDS011;64847;45.778;12.802;2023-03-05T02:04:35;18.00;;;15.60;;
76115;SDS011;64847;45.778;12.802;2023-03-05T02:07:04;18.07;;;16.17;;
76115;SDS011;64847;45.778;12.802;2023-03-05T02:09:29;16.90;;;14.77;;
76115;SDS011;64847;45.778;12.802;2023-03-05T02:11:55;19.50;;;16.07;;
76115;SDS011;64847;45.778;12.802;2023-03-05T02:14:20;19.33;;;16.03;;
76115;SDS011;64847;45.778;12.802;2023-03-05T02:16:48;16.83;;;14.97;;
76115;SDS011;64847;45.778;12.802;2023-03-05T02:19:13;18.13;;;15.00;;
76115;SDS011;64847;45.778;12.802;2023-03-05T02:21:43;18.27;;;15.07;;
76115;SDS011;64847;45.778;12.802;2023-03-05T02:24:11;16.97;;;14.43;;
76115;SDS011;64847;45.778;12.802;2023-03-05T02:26:41;14.83;;;13.17;;
76115;SDS011;64847;45.778;12.802;2023-03-05T02:29:08;15.80;;;13.90;;
76115;SDS011;64847;45.778;12.802;2023-03-05T02:31:35;18.27;;;14.50;;
76115;SDS011;64847;45.778;12.802;2023-03-05T02:34:03;16.03;;;13.63;;
76115;SDS011;64847;45.778;12.802;2023-03-05T02:36:30;16.60;;;13.37;;
76115;SDS011;64847;45.778;12.802;2023-03-05T02:38:55;17.03;;;12.80;;
76115;SDS011;64847;45.778;12.802;2023-03-05T02:41:21;14.23;;;12.70;;
76115;SDS011;64847;45.778;12.802;2023-03-05T02:43:47;14.10;;;12.30;;
76115;SDS011;64847;45.778;12.802;2023-03-05T02:46:12;15.60;;;12.73;;
76115;SDS011;64847;45.778;12.802;2023-03-05T02:48:37;17.10;;;12.10;;
76115;SDS011;64847;45.778;12.802;2023-03-05T02:51:03;14.13;;;11.90;;
76115;SDS011;64847;45.778;12.802;2023-03-05T02:53:29;13.20;;;10.73;;
76115;SDS011;64847;45.778;12.802;2023-03-05T02:55:55;13.33;;;11.93;;
76115;SDS011;64847;45.778;12.802;2023-03-05T02:58:20;15.33;;;11.40;;
76115;SDS011;64847;45.778;12.802;2023-03-05T03:00:45;13.13;;;11.07;;
76115;SDS011;64847;45.778;12.802;2023-03-05T03:03:11;12.20;;;11.03;;
76115;SDS011;64847;45.778;12.802;2023-03-05T03:05:37;15.77;;;11.97;;
76115;SDS011;64847;45.778;12.802;2023-03-05T03:08:02;13.40;;;11.57;;
76115;SDS011;64847;45.778;12.802;2023-03-05T03:10:28;13.10;;;11.13;;
76115;SDS011;64847;45.778;12.802;2023-03-05T03:12:53;13.17;;;11.47;;
76115;SDS011;64847;45.778;12.802;2023-03-05T03:15:19;11.83;;;10.60;;
76115;SDS011;64847;45.778;12.802;2023-03-05T03:17:44;11.97;;;10.53;;
76115;SDS011;64847;45.778;12.802;2023-03-05T03:20:11;13.63;;;10.20;;
76115;SDS011;64847;45.778;12.802;2023-03-05T03:22:40;12.53;;;11.20;;
76115;SDS011;64847;45.778;12.802;2023-03-05T03:25:07;12.47;;;10.53;;
76115;SDS011;64847;45.778;12.802;2023-03-05T03:27:33;11.83;;;9.90;;
76115;SDS011;64847;45.778;12.802;2023-03-05T03:29:58;13.23;;;10.40;;
76115;SDS011;64847;45.778;12.802;2023-03-05T03:32:27;12.63;;;10.20;;
76115;SDS011;64847;45.778;12.802;2023-03-05T03:34:52;11.07;;;9.63;;
76115;SDS011;64847;45.778;12.802;2023-03-05T03:37:18;11.67;;;10.27;;
76115;SDS011;64847;45.778;12.802;2023-03-05T03:39:43;12.43;;;10.67;;
76115;SDS011;64847;45.778;12.802;2023-03-05T03:42:09;10.50;;;9.33;;
76115;SDS011;64847;45.778;12.802;2023-03-05T03:44:34;12.40;;;9.97;;
76115;SDS011;64847;45.778;12.802;2023-03-05T03:46:59;11.73;;;9.70;;
76115;SDS011;64847;45.778;12.802;2023-03-05T03:49:25;12.83;;;9.30;;
76115;SDS011;64847;45.778;12.802;2023-03-05T03:51:51;9.30;;;8.27;;
76115;SDS011;64847;45.778;12.802;2023-03-05T03:54:18;11.53;;;8.77;;
76115;SDS011;64847;45.778;12.802;2023-03-05T03:56:44;14.23;;;8.90;;
76115;SDS011;64847;45.778;12.802;2023-03-05T03:59:09;10.10;;;9.10;;
76115;SDS011;64847;45.778;12.802;2023-03-05T04:01:35;9.57;;;8.60;;
76115;SDS011;64847;45.778;12.802;2023-03-05T04:04:01;12.10;;;8.47;;
76115;SDS011;64847;45.778;12.802;2023-03-05T04:06:27;11.87;;;9.27;;
76115;SDS011;64847;45.778;12.802;2023-03-05T04:08:53;10.37;;;8.07;;
76115;SDS011;64847;45.778;12.802;2023-03-05T04:11:18;10.43;;;7.40;;
76115;SDS011;64847;45.778;12.802;2023-03-05T04:13:47;8.50;;;7.33;;
76115;SDS011;64847;45.778;12.802;2023-03-05T04:16:14;9.70;;;7.50;;
76115;SDS011;64847;45.778;12.802;2023-03-05T04:18:39;9.43;;;7.50;;
76115;SDS011;64847;45.778;12.802;2023-03-05T04:21:06;9.33;;;7.70;;
76115;SDS011;64847;45.778;12.802;2023-03-05T04:23:31;9.40;;;8.00;;
76115;SDS011;64847;45.778;12.802;2023-03-05T04:25:57;8.40;;;7.50;;
76115;SDS011;64847;45.778;12.802;2023-03-05T04:28:22;8.83;;;7.93;;
76115;SDS011;64847;45.778;12.802;2023-03-05T04:30:48;8.27;;;7.47;;
76115;SDS011;64847;45.778;12.802;2023-03-05T04:33:13;7.30;;;6.60;;
76115;SDS011;64847;45.778;12.802;2023-03-05T04:35:40;7.57;;;6.87;;
76115;SDS011;64847;45.778;12.802;2023-03-05T04:38:06;8.13;;;7.33;;
76115;SDS011;64847;45.778;12.802;2023-03-05T04:40:32;7.50;;;6.67;;
76115;SDS011;64847;45.778;12.802;2023-03-05T04:42:58;7.70;;;6.93;;
76115;SDS011;64847;45.778;12.802;2023-03-05T04:45:23;8.17;;;7.37;;
76115;SDS011;64847;45.778;12.802;2023-03-05T04:47:48;7.10;;;6.40;;
76115;SDS011;64847;45.778;12.802;2023-03-05T04:50:14;8.07;;;6.87;;
76115;SDS011;64847;45.778;12.802;2023-03-05T04:52:41;9.63;;;6.90;;
76115;SDS011;64847;45.778;12.802;2023-03-05T04:55:08;9.43;;;7.37;;
76115;SDS011;64847;45.778;12.802;2023-03-05T04:57:35;7.30;;;6.57;;
76115;SDS011;64847;45.778;12.802;2023-03-05T05:00:00;8.37;;;6.97;;
76115;SDS011;64847;45.778;12.802;2023-03-05T05:02:26;7.80;;;6.53;;
76115;SDS011;64847;45.778;12.802;2023-03-05T05:04:52;8.40;;;6.40;;
76115;SDS011;64847;45.778;12.802;2023-03-05T05:07:18;6.10;;;5.50;;
76115;SDS011;64847;45.778;12.802;2023-03-05T05:09:43;7.37;;;6.60;;
76115;SDS011;64847;45.778;12.802;2023-03-05T05:12:09;6.73;;;6.00;;
76115;SDS011;64847;45.778;12.802;2023-03-05T05:14:34;5.97;;;5.37;;
76115;SDS011;64847;45.778;12.802;2023-03-05T05:17:00;6.37;;;5.77;;
76115;SDS011;64847;45.778;12.802;2023-03-05T05:19:29;5.83;;;5.30;;
76115;SDS011;64847;45.778;12.802;2023-03-05T05:21:55;5.50;;;5.00;;
76115;SDS011;64847;45.778;12.802;2023-03-05T05:24:20;6.13;;;5.27;;
76115;SDS011;64847;45.778;12.802;2023-03-05T05:26:46;5.47;;;4.97;;
76115;SDS011;64847;45.778;12.802;2023-03-05T05:29:11;6.23;;;5.63;;
76115;SDS011;64847;45.778;12.802;2023-03-05T05:31:36;5.60;;;5.10;;
76115;SDS011;64847;45.778;12.802;2023-03-05T05:34:02;5.73;;;5.23;;
76115;SDS011;64847;45.778;12.802;2023-03-05T05:36:27;5.43;;;4.93;;
76115;SDS011;64847;45.778;12.802;2023-03-05T05:38:53;5.63;;;4.63;;
76115;SDS011;64847;45.778;12.802;2023-03-05T05:41:19;5.83;;;5.00;;
76115;SDS011;64847;45.778;12.802;2023-03-05T05:43:47;5.40;;;5.00;;
76115;SDS011;64847;45.778;12.802;2023-03-05T05:46:15;6.30;;;5.70;;
76115;SDS011;64847;45.778;12.802;2023-03-05T05:48:42;5.87;;;4.70;;
76115;SDS011;64847;45.778;12.802;2023-03-05T05:51:09;5.43;;;4.93;;
76115;SDS011;64847;45.778;12.802;2023-03-05T05:53:36;5.13;;;4.67;;
76115;SDS011;64847;45.778;12.802;2023-03-05T05:56:03;5.60;;;4.60;;
76115;SDS011;64847;45.778;12.802;2023-03-05T06:00:59;6.50;;;4.73;;
76115;SDS011;64847;45.778;12.802;2023-03-05T06:03:25;5.27;;;4.53;;
76115;SDS011;64847;45.778;12.802;2023-03-05T06:05:50;5.30;;;4.00;;
76115;SDS011;64847;45.778;12.802;2023-03-05T06:08:18;5.67;;;4.57;;
76115;SDS011;64847;45.778;12.802;2023-03-05T06:10:44;5.17;;;4.30;;
76115;SDS011;64847;45.778;12.802;2023-03-05T06:13:09;5.30;;;4.33;;
76115;SDS011;64847;45.778;12.802;2023-03-05T06:15:35;4.50;;;4.10;;
76115;SDS011;64847;45.778;12.802;2023-03-05T06:18:00;5.53;;;4.97;;
76115;SDS011;64847;45.778;12.802;2023-03-05T06:20:25;5.30;;;4.80;;
76115;SDS011;64847;45.778;12.802;2023-03-05T06:22:52;5.27;;;4.83;;
76115;SDS011;64847;45.778;12.802;2023-03-05T06:25:18;6.13;;;4.67;;
76115;SDS011;64847;45.778;12.802;2023-03-05T06:27:43;5.93;;;4.57;;
76115;SDS011;64847;45.778;12.802;2023-03-05T06:30:09;5.93;;;4.60;;
76115;SDS011;64847;45.778;12.802;2023-03-05T06:32:35;4.30;;;3.90;;
76115;SDS011;64847;45.778;12.802;2023-03-05T06:35:00;4.60;;;4.20;;
76115;SDS011;64847;45.778;12.802;2023-03-05T06:37:29;4.27;;;3.87;;
76115;SDS011;64847;45.778;12.802;2023-03-05T06:39:54;3.97;;;3.63;;
76115;SDS011;64847;45.778;12.802;2023-03-05T06:42:20;6.40;;;4.10;;
76115;SDS011;64847;45.778;12.802;2023-03-05T06:44:45;4.57;;;4.17;;
76115;SDS011;64847;45.778;12.802;2023-03-05T06:47:11;4.33;;;3.93;;
76115;SDS011;64847;45.778;12.802;2023-03-05T06:49:37;3.73;;;3.43;;
76115;SDS011;64847;45.778;12.802;2023-03-05T06:52:03;4.23;;;3.70;;
76115;SDS011;64847;45.778;12.802;2023-03-05T06:54:29;5.30;;;4.17;;
76115;SDS011;64847;45.778;12.802;2023-03-05T06:56:55;4.37;;;3.97;;
76115;SDS011;64847;45.778;12.802;2023-03-05T06:59:20;4.37;;;3.97;;
76115;SDS011;64847;45.778;12.802;2023-03-05T07:01:46;4.47;;;4.00;;
76115;SDS011;64847;45.778;12.802;2023-03-05T07:04:12;4.40;;;3.87;;
76115;SDS011;64847;45.778;12.802;2023-03-05T07:06:39;3.73;;;3.53;;
76115;SDS011;64847;45.778;12.802;2023-03-05T07:09:06;3.87;;;3.43;;
76115;SDS011;64847;45.778;12.802;2023-03-05T07:11:34;3.90;;;3.60;;
76115;SDS011;64847;45.778;12.802;2023-03-05T07:13:59;4.67;;;3.97;;
76115;SDS011;64847;45.778;12.802;2023-03-05T07:16:26;3.70;;;3.40;;
76115;SDS011;64847;45.778;12.802;2023-03-05T07:18:53;4.00;;;3.50;;
76115;SDS011;64847;45.778;12.802;2023-03-05T07:21:20;4.20;;;3.80;;
76115;SDS011;64847;45.778;12.802;2023-03-05T07:23:47;4.17;;;3.87;;
76115;SDS011;64847;45.778;12.802;2023-03-05T07:26:13;3.90;;;3.60;;
76115;SDS011;64847;45.778;12.802;2023-03-05T07:28:39;4.17;;;3.77;;
76115;SDS011;64847;45.778;12.802;2023-03-05T07:31:06;5.03;;;4.27;;
76115;SDS011;64847;45.778;12.802;2023-03-05T07:33:34;5.10;;;4.60;;
76115;SDS011;64847;45.778;12.802;2023-03-05T07:36:01;5.30;;;4.80;;
76115;SDS011;64847;45.778;12.802;2023-03-05T07:38:28;4.77;;;4.37;;
76115;SDS011;64847;45.778;12.802;2023-03-05T07:41:00;4.70;;;4.37;;
76115;SDS011;64847;45.778;12.802;2023-03-05T07:43:29;6.50;;;5.20;;
76115;SDS011;64847;45.778;12.802;2023-03-05T07:45:55;6.00;;;5.40;;
76115;SDS011;64847;45.778;12.802;2023-03-05T07:48:20;5.40;;;4.90;;
76115;SDS011;64847;45.778;12.802;2023-03-05T07:50:46;6.47;;;4.60;;
76115;SDS011;64847;45.778;12.802;2023-03-05T07:53:12;5.37;;;4.87;;
76115;SDS011;64847;45.778;12.802;2023-03-05T07:55:42;6.37;;;5.17;;
76115;SDS011;64847;45.778;12.802;2023-03-05T07:58:11;5.43;;;4.93;;
76115;SDS011;64847;45.778;12.802;2023-03-05T08:00:38;5.30;;;4.85;;
76115;SDS011;64847;45.778;12.802;2023-03-05T08:03:04;5.68;;;5.05;;
76115;SDS011;64847;45.778;12.802;2023-03-05T08:05:30;5.25;;;4.75;;
76115;SDS011;64847;45.778;12.802;2023-03-05T08:07:55;5.00;;;4.60;;
76115;SDS011;64847;45.778;12.802;2023-03-05T08:10:21;5.57;;;5.07;;
76115;SDS011;64847;45.778;12.802;2023-03-05T08:12:46;5.35;;;4.93;;
76115;SDS011;64847;45.778;12.802;2023-03-05T08:15:11;5.70;;;5.18;;
76115;SDS011;64847;45.778;12.802;2023-03-05T08:17:37;5.65;;;5.05;;
76115;SDS011;64847;45.778;12.802;2023-03-05T08:20:03;5.75;;;5.25;;
76115;SDS011;64847;45.778;12.802;2023-03-05T08:22:33;5.40;;;4.90;;
76115;SDS011;64847;45.778;12.802;2023-03-05T08:24:59;5.75;;;5.25;;
76115;SDS011;64847;45.778;12.802;2023-03-05T08:27:25;6.03;;;5.53;;
76115;SDS011;64847;45.778;12.802;2023-03-05T08:29:50;6.10;;;5.55;;
76115;SDS011;64847;45.778;12.802;2023-03-05T08:32:15;6.80;;;6.20;;
76115;SDS011;64847;45.778;12.802;2023-03-05T08:34:41;6.47;;;5.88;;
76115;SDS011;64847;45.778;12.802;2023-03-05T08:37:06;6.35;;;5.82;;
76115;SDS011;64847;45.778;12.802;2023-03-05T08:39:33;6.35;;;5.72;;
76115;SDS011;64847;45.778;12.802;2023-03-05T08:42:00;6.45;;;5.85;;
76115;SDS011;64847;45.778;12.802;2023-03-05T08:44:25;6.72;;;6.13;;
76115;SDS011;64847;45.778;12.802;2023-03-05T08:46:51;6.43;;;5.82;;
76115;SDS011;64847;45.778;12.802;2023-03-05T08:49:16;7.05;;;6.43;;
76115;SDS011;64847;45.778;12.802;2023-03-05T08:51:41;6.97;;;6.45;;
76115;SDS011;64847;45.778;12.802;2023-03-05T08:54:07;7.15;;;6.45;;
76115;SDS011;64847;45.778;12.802;2023-03-05T08:56:33;7.70;;;6.90;;
76115;SDS011;64847;45.778;12.802;2023-03-05T08:58:59;6.38;;;5.78;;
76115;SDS011;64847;45.778;12.802;2023-03-05T09:01:24;6.57;;;5.90;;
76115;SDS011;64847;45.778;12.802;2023-03-05T09:03:50;7.88;;;6.65;;
76115;SDS011;64847;45.778;12.802;2023-03-05T09:06:15;6.53;;;6.03;;
76115;SDS011;64847;45.778;12.802;2023-03-05T09:08:41;7.05;;;6.40;;
76115;SDS011;64847;45.778;12.802;2023-03-05T09:11:07;6.38;;;5.85;;
76115;SDS011;64847;45.778;12.802;2023-03-05T09:13:33;6.70;;;6.10;;
76115;SDS011;64847;45.778;12.802;2023-03-05T09:16:00;6.38;;;5.88;;
76115;SDS011;64847;45.778;12.802;2023-03-05T09:18:27;6.85;;;5.88;;
76115;SDS011;64847;45.778;12.802;2023-03-05T09:20:53;5.85;;;5.35;;
76115;SDS011;64847;45.778;12.802;2023-03-05T09:23:18;7.68;;;5.78;;
76115;SDS011;64847;45.778;12.802;2023-03-05T09:25:44;6.68;;;6.18;;
76115;SDS011;64847;45.778;12.802;2023-03-05T09:28:10;6.90;;;6.30;;
76115;SDS011;64847;45.778;12.802;2023-03-05T09:30:35;6.68;;;5.72;;
76115;SDS011;64847;45.778;12.802;2023-03-05T09:33:01;6.93;;;6.10;;
76115;SDS011;64847;45.778;12.802;2023-03-05T09:35:27;6.28;;;5.78;;
76115;SDS011;64847;45.778;12.802;2023-03-05T09:37:52;6.30;;;5.70;;
76115;SDS011;64847;45.778;12.802;2023-03-05T09:40:18;8.45;;;7.03;;
76115;SDS011;64847;45.778;12.802;2023-03-05T09:45:36;6.57;;;5.93;;
76115;SDS011;64847;45.778;12.802;2023-03-05T09:48:20;6.72;;;6.22;;
76115;SDS011;64847;45.778;12.802;2023-03-05T09:51:09;7.97;;;6.65;;
76115;SDS011;64847;45.778;12.802;2023-03-05T09:53:47;7.28;;;6.68;;
76115;SDS011;64847;45.778;12.802;2023-03-05T09:56:28;7.10;;;6.35;;
76115;SDS011;64847;45.778;12.802;2023-03-05T09:59:19;7.78;;;6.88;;
76115;SDS011;64847;45.778;12.802;2023-03-05T10:02:04;7.30;;;6.65;;
76115;SDS011;64847;45.778;12.802;2023-03-05T10:04:52;7.22;;;6.53;;
76115;SDS011;64847;45.778;12.802;2023-03-05T10:07:40;7.75;;;6.90;;
76115;SDS011;64847;45.778;12.802;2023-03-05T10:12:51;6.80;;;6.18;;
76115;SDS011;64847;45.778;12.802;2023-03-05T10:17:46;6.30;;;5.80;;
76115;SDS011;64847;45.778;12.802;2023-03-05T10:34:09;7.80;;;7.10;;
76115;SDS011;64847;45.778;12.802;2023-03-05T10:36:48;6.95;;;6.40;;
76115;SDS011;64847;45.778;12.802;2023-03-05T10:39:29;6.68;;;6.05;;
76115;SDS011;64847;45.778;12.802;2023-03-05T10:44:57;6.60;;;6.00;;
76115;SDS011;64847;45.778;12.802;2023-03-05T10:47:37;7.25;;;5.70;;
76115;SDS011;64847;45.778;12.802;2023-03-05T10:50:15;6.75;;;6.15;;
76115;SDS011;64847;45.778;12.802;2023-03-05T10:52:46;7.25;;;6.60;;
76115;SDS011;64847;45.778;12.802;2023-03-05T10:55:38;7.30;;;6.60;;
76115;SDS011;64847;45.778;12.802;2023-03-05T10:58:13;7.32;;;6.72;;
76115;SDS011;64847;45.778;12.802;2023-03-05T11:00:40;7.07;;;6.35;;
76115;SDS011;64847;45.778;12.802;2023-03-05T11:03:46;6.00;;;5.50;;
76115;SDS011;64847;45.778;12.802;2023-03-05T11:06:12;5.32;;;4.93;;
76115;SDS011;64847;45.778;12.802;2023-03-05T11:08:37;5.88;;;5.47;;
76115;SDS011;64847;45.778;12.802;2023-03-05T11:11:07;7.93;;;6.43;;
76115;SDS011;64847;45.778;12.802;2023-03-05T11:13:56;6.20;;;5.70;;
76115;SDS011;64847;45.778;12.802;2023-03-05T11:16:33;6.43;;;5.93;;
76115;SDS011;64847;45.778;12.802;2023-03-05T11:21:35;8.88;;;6.97;;
76115;SDS011;64847;45.778;12.802;2023-03-05T11:24:04;7.30;;;6.70;;
76115;SDS011;64847;45.778;12.802;2023-03-05T11:26:32;6.68;;;6.15;;
76115;SDS011;64847;45.778;12.802;2023-03-05T11:28:59;7.57;;;6.43;;
76115;SDS011;64847;45.778;12.802;2023-03-05T11:31:26;6.35;;;5.75;;
76115;SDS011;64847;45.778;12.802;2023-03-05T11:33:58;6.85;;;6.10;;
76115;SDS011;64847;45.778;12.802;2023-03-05T11:36:36;7.78;;;6.97;;
76115;SDS011;64847;45.778;12.802;2023-03-05T11:41:36;6.25;;;5.70;;
76115;SDS011;64847;45.778;12.802;2023-03-05T11:44:13;6.10;;;5.55;;
76115;SDS011;64847;45.778;12.802;2023-03-05T11:46:41;7.35;;;6.50;;
76115;SDS011;64847;45.778;12.802;2023-03-05T11:49:17;7.43;;;6.65;;
76115;SDS011;64847;45.778;12.802;2023-03-05T11:51:51;6.18;;;5.68;;
76115;SDS011;64847;45.778;12.802;2023-03-05T11:54:25;5.82;;;5.43;;
76115;SDS011;64847;45.778;12.802;2023-03-05T11:56:55;6.40;;;5.50;;
76115;SDS011;64847;45.778;12.802;2023-03-05T11:59:26;6.45;;;5.95;;
76115;SDS011;64847;45.778;12.802;2023-03-05T12:01:53;7.85;;;7.15;;
76115;SDS011;64847;45.778;12.802;2023-03-05T12:04:20;7.75;;;7.15;;
76115;SDS011;64847;45.778;12.802;2023-03-05T12:06:47;7.45;;;6.85;;
76115;SDS011;64847;45.778;12.802;2023-03-05T12:12:07;8.25;;;7.45;;
76115;SDS011;64847;45.778;12.802;2023-03-05T12:14:55;7.60;;;6.90;;
76115;SDS011;64847;45.778;12.802;2023-03-05T12:20:00;7.72;;;6.95;;
76115;SDS011;64847;45.778;12.802;2023-03-05T12:22:30;8.65;;;7.85;;
76115;SDS011;64847;45.778;12.802;2023-03-05T12:25:17;7.90;;;7.10;;
76115;SDS011;64847;45.778;12.802;2023-03-05T12:27:49;7.70;;;6.97;;
76115;SDS011;64847;45.778;12.802;2023-03-05T12:32:58;7.55;;;6.95;;
76115;SDS011;64847;45.778;12.802;2023-03-05T12:35:37;7.70;;;7.00;;
76115;SDS011;64847;45.778;12.802;2023-03-05T12:38:14;7.53;;;6.60;;
76115;SDS011;64847;45.778;12.802;2023-03-05T12:40:42;7.10;;;6.50;;
76115;SDS011;64847;45.778;12.802;2023-03-05T12:43:27;7.85;;;7.20;;
76115;SDS011;64847;45.778;12.802;2023-03-05T12:48:53;7.03;;;6.32;;
76115;SDS011;64847;45.778;12.802;2023-03-05T12:51:29;7.93;;;7.22;;
76115;SDS011;64847;45.778;12.802;2023-03-05T12:54:17;7.50;;;6.80;;
76115;SDS011;64847;45.778;12.802;2023-03-05T12:56:46;7.82;;;7.03;;
76115;SDS011;64847;45.778;12.802;2023-03-05T12:59:12;7.60;;;6.97;;
76115;SDS011;64847;45.778;12.802;2023-03-05T13:01:41;8.18;;;6.55;;
76115;SDS011;64847;45.778;12.802;2023-03-05T13:04:17;7.93;;;7.13;;
76115;SDS011;64847;45.778;12.802;2023-03-05T13:06:47;8.85;;;7.38;;
76115;SDS011;64847;45.778;12.802;2023-03-05T13:09:23;8.80;;;7.88;;
76115;SDS011;64847;45.778;12.802;2023-03-05T13:11:51;8.57;;;7.78;;
76115;SDS011;64847;45.778;12.802;2023-03-05T13:17:27;7.40;;;6.70;;
76115;SDS011;64847;45.778;12.802;2023-03-05T13:19:54;7.70;;;6.90;;
76115;SDS011;64847;45.778;12.802;2023-03-05T13:22:20;8.10;;;7.30;;
76115;SDS011;64847;45.778;12.802;2023-03-05T13:24:48;8.70;;;7.80;;
76115;SDS011;64847;45.778;12.802;2023-03-05T13:27:34;10.40;;;7.20;;
76115;SDS011;64847;45.778;12.802;2023-03-05T13:29:59;9.02;;;8.02;;
76115;SDS011;64847;45.778;12.802;2023-03-05T13:32:25;10.07;;;7.00;;
76115;SDS011;64847;45.778;12.802;2023-03-05T13:34:53;7.45;;;6.85;;
76115;SDS011;64847;45.778;12.802;2023-03-05T13:37:24;8.55;;;7.40;;
76115;SDS011;64847;45.778;12.802;2023-03-05T13:42:33;7.40;;;6.70;;
76115;SDS011;64847;45.778;12.802;2023-03-05T13:45:01;9.60;;;8.15;;
76115;SDS011;64847;45.778;12.802;2023-03-05T13:47:31;8.85;;;7.95;;
76115;SDS011;64847;45.778;12.802;2023-03-05T13:49:58;8.20;;;7.38;;
76115;SDS011;64847;45.778;12.802;2023-03-05T13:52:31;8.18;;;7.38;;
76115;SDS011;64847;45.778;12.802;2023-03-05T13:55:00;7.63;;;6.82;;
76115;SDS011;64847;45.778;12.802;2023-03-05T13:57:32;6.90;;;6.20;;
76115;SDS011;64847;45.778;12.802;2023-03-05T14:00:06;6.28;;;5.47;;
76115;SDS011;64847;45.778;12.802;2023-03-05T14:02:48;6.95;;;6.25;;
76115;SDS011;64847;45.778;12.802;2023-03-05T14:05:14;6.82;;;6.15;;
76115;SDS011;64847;45.778;12.802;2023-03-05T14:07:40;6.22;;;5.63;;
76115;SDS011;64847;45.778;12.802;2023-03-05T14:13:22;7.35;;;6.65;;
76115;SDS011;64847;45.778;12.802;2023-03-05T14:16:02;10.13;;;7.55;;
76115;SDS011;64847;45.778;12.802;2023-03-05T14:18:29;9.60;;;8.20;;
76115;SDS011;64847;45.778;12.802;2023-03-05T14:26:18;11.38;;;9.05;;
76115;SDS011;64847;45.778;12.802;2023-03-05T14:31:32;10.97;;;8.10;;
76115;SDS011;64847;45.778;12.802;2023-03-05T14:34:02;9.13;;;8.20;;
76115;SDS011;64847;45.778;12.802;2023-03-05T14:36:29;9.53;;;7.53;;
76115;SDS011;64847;45.778;12.802;2023-03-05T14:38:55;9.77;;;8.77;;
76115;SDS011;64847;45.778;12.802;2023-03-05T14:41:39;11.13;;;9.33;;
76115;SDS011;64847;45.778;12.802;2023-03-05T14:44:13;16.50;;;10.10;;
76115;SDS011;64847;45.778;12.802;2023-03-05T14:46:40;15.47;;;10.70;;
76115;SDS011;64847;45.778;12.802;2023-03-05T14:49:06;12.90;;;9.87;;
76115;SDS011;64847;45.778;12.802;2023-03-05T14:51:39;11.17;;;9.90;;
76115;SDS011;64847;45.778;12.802;2023-03-05T14:54:15;12.97;;;11.37;;
76115;SDS011;64847;45.778;12.802;2023-03-05T14:56:42;14.83;;;11.70;;
76115;SDS011;64847;45.778;12.802;2023-03-05T14:59:07;17.40;;;13.80;;
76115;SDS011;64847;45.778;12.802;2023-03-05T15:01:33;15.80;;;12.90;;
76115;SDS011;64847;45.778;12.802;2023-03-05T15:03:58;15.33;;;12.70;;
76115;SDS011;64847;45.778;12.802;2023-03-05T15:06:29;15.27;;;11.63;;
76115;SDS011;64847;45.778;12.802;2023-03-05T15:08:58;13.80;;;11.80;;
76115;SDS011;64847;45.778;12.802;2023-03-05T15:11:28;17.73;;;14.70;;
76115;SDS011;64847;45.778;12.802;2023-03-05T15:13:53;19.33;;;15.17;;
76115;SDS011;64847;45.778;12.802;2023-03-05T15:18:47;18.17;;;15.93;;
76115;SDS011;64847;45.778;12.802;2023-03-05T15:21:13;18.90;;;16.93;;
76115;SDS011;64847;45.778;12.802;2023-03-05T15:23:39;18.73;;;16.70;;
76115;SDS011;64847;45.778;12.802;2023-03-05T15:26:05;21.73;;;19.30;;
76115;SDS011;64847;45.778;12.802;2023-03-05T15:28:33;23.43;;;20.77;;
76115;SDS011;64847;45.778;12.802;2023-03-05T15:31:01;24.27;;;21.67;;
76115;SDS011;64847;45.778;12.802;2023-03-05T15:33:28;27.60;;;24.67;;
76115;SDS011;64847;45.778;12.802;2023-03-05T15:35:54;27.90;;;24.90;;
76115;SDS011;64847;45.778;12.802;2023-03-05T15:38:20;30.97;;;27.60;;
76115;SDS011;64847;45.778;12.802;2023-03-05T15:40:46;27.20;;;24.27;;
76115;SDS011;64847;45.778;12.802;2023-03-05T15:43:11;25.90;;;22.90;;